Terminal Aerodrome Forecast
Issued by NWS

Home | Current Version | Previous Version | Text Only | Print | Product List | Glossary On
Versions: 1 2 3 4 5 6 7 8 9 10 11 12 13 14 15 16
000
FTUS46 KPDT 012320
TAFDLS
TAF
KDLS 012320Z 0200/0224 30014G23KT P6SM BKN250
     FM020400 VRB05KT P6SM SCT080 BKN200
     FM020900 VRB04KT P6SM BKN060 BKN150
     FM021500 31011KT P6SM BKN050
     FM021800 32011G22KT P6SM SCT050
     FM022100 31018G28KT P6SM SKC=

USA.gov is the U.S. government's official web portal to all federal, state and local government web resources and services.